Time;durP1;ratioP1;P1;durP2;ratioP2;P2;SDS_P1;SDS_P2;PMS_P1;PMS_P2;Temp;Humidity;BMP_temperature;BMP_pressure;BME280_temperature;BME280_humidity;BME280_pressure;Samples;Min_cycle;Max_cycle;Signal;HPM_P1;HPM_P2
2021/04/01 00:00:15;;;;;;;8.52;1.75;;;29.30;41.30;;;;;;5059696;28;20407;-62
2021/04/01 00:02:52;;;;;;;12.75;2.50;;;29.30;41.30;;;;;;5071558;28;20035;-62
2021/04/01 00:05:20;;;;;;;4.85;1.63;;;29.40;40.80;;;;;;5071472;28;20043;-62
2021/04/01 00:07:47;;;;;;;9.02;2.00;;;29.30;41.10;;;;;;5072079;28;20026;-63
2021/04/01 00:10:17;;;;;;;9.45;1.48;;;29.20;41.20;;;;;;5071821;28;20028;-62
2021/04/01 00:12:43;;;;;;;14.07;1.70;;;29.30;40.80;;;;;;5071583;28;20024;-62
2021/04/01 00:15:12;;;;;;;17.17;2.78;;;29.40;40.80;;;;;;5069791;28;20078;-62
2021/04/01 00:17:42;;;;;;;11.20;1.98;;;29.50;40.60;;;;;;5070098;28;20113;-63
2021/04/01 00:20:12;;;;;;;7.60;1.95;;;29.50;41.10;;;;;;5069542;28;20043;-63
2021/04/01 00:22:40;;;;;;;9.98;2.08;;;29.60;41.40;;;;;;5052531;28;20654;-62
2021/04/01 00:25:07;;;;;;;6.13;1.63;;;29.60;40.30;;;;;;5072164;28;20030;-62
2021/04/01 00:27:34;;;;;;;7.53;1.98;;;29.50;39.00;;;;;;5075706;28;20401;-61
2021/04/01 00:30:01;;;;;;;12.85;2.30;;;29.50;40.00;;;;;;5075809;28;20048;-62
2021/04/01 00:32:27;;;;;;;14.32;2.42;;;29.70;39.30;;;;;;5074996;28;20034;-62
2021/04/01 00:34:54;;;;;;;13.30;2.55;;;29.70;39.80;;;;;;5074608;28;20036;-63
2021/04/01 00:37:20;;;;;;;10.38;2.58;;;29.80;39.90;;;;;;5073807;28;20039;-62
2021/04/01 00:39:47;;;;;;;11.80;2.58;;;29.70;39.70;;;;;;5075261;28;20024;-61
2021/04/01 00:42:14;;;;;;;12.43;1.77;;;29.50;38.90;;;;;;5074631;28;21486;-62
2021/04/01 00:44:41;;;;;;;11.53;2.17;;;29.40;37.80;;;;;;5075708;28;20020;-61
2021/04/01 00:47:09;;;;;;;22.55;2.45;;;29.30;38.20;;;;;;5074269;28;20889;-63
2021/04/01 00:49:39;;;;;;;12.93;2.38;;;29.10;37.60;;;;;;5072635;28;20036;-63
2021/04/01 00:52:08;;;;;;;11.98;2.70;;;29.00;38.10;;;;;;5075160;28;20051;-65
2021/04/01 00:54:38;;;;;;;5.50;1.92;;;28.70;37.20;;;;;;5073511;28;20135;-64
2021/04/01 00:57:05;;;;;;;7.35;1.52;;;28.60;37.30;;;;;;5073913;28;20563;-65
2021/04/01 00:59:32;;;;;;;8.35;2.00;;;28.70;38.70;;;;;;5074387;28;20028;-64
2021/04/01 01:02:04;;;;;;;11.70;1.55;;;28.50;37.50;;;;;;5074529;28;20036;-64
2021/04/01 01:04:31;;;;;;;7.65;1.73;;;28.40;38.30;;;;;;5073697;28;20020;-64
2021/04/01 01:07:00;;;;;;;26.13;2.90;;;28.20;39.10;;;;;;5073222;28;20051;-64
2021/04/01 01:09:26;;;;;;;9.27;2.20;;;28.20;40.00;;;;;;5073640;28;20029;-63
2021/04/01 01:11:53;;;;;;;22.05;3.10;;;28.10;40.70;;;;;;5073923;28;20559;-62
2021/04/01 01:14:19;;;;;;;9.27;2.50;;;28.00;41.60;;;;;;5074649;28;20031;-62
2021/04/01 01:16:47;;;;;;;9.63;2.03;;;27.80;43.00;;;;;;5075114;28;20755;-64
2021/04/01 01:19:14;;;;;;;11.77;2.88;;;27.80;43.00;;;;;;5074059;28;20063;-62
2021/04/01 01:21:41;;;;;;;14.25;2.72;;;27.80;44.50;;;;;;5073186;28;20028;-62
2021/04/01 01:24:15;;;;;;;14.68;2.72;;;27.80;44.10;;;;;;5072847;28;20035;-62
2021/04/01 01:26:42;;;;;;;18.60;3.03;;;27.70;44.30;;;;;;5075435;28;20059;-62
2021/04/01 01:29:09;;;;;;;19.70;3.40;;;27.60;44.40;;;;;;5073378;28;20330;-62
2021/04/01 01:31:46;;;;;;;13.48;3.75;;;27.50;44.40;;;;;;5073233;28;20028;-62
2021/04/01 01:34:13;;;;;;;17.60;3.25;;;27.30;44.70;;;;;;5074600;28;20023;-63
2021/04/01 01:36:39;;;;;;;10.70;2.58;;;27.30;44.40;;;;;;5074914;28;20036;-63
2021/04/01 01:39:06;;;;;;;12.18;3.15;;;27.10;44.20;;;;;;5072476;28;20028;-65
2021/04/01 01:41:32;;;;;;;14.60;2.65;;;26.90;44.60;;;;;;5075410;28;20032;-63
2021/04/01 01:44:01;;;;;;;16.00;3.28;;;26.80;45.60;;;;;;5073264;28;20058;-63
2021/04/01 01:46:27;;;;;;;7.47;2.42;;;26.70;48.00;;;;;;5074879;28;20139;-64
2021/04/01 01:48:57;;;;;;;13.50;2.90;;;26.00;48.90;;;;;;5073476;28;20056;-65
2021/04/01 01:51:24;;;;;;;9.10;2.83;;;25.70;48.60;;;;;;5075252;28;20028;-64
2021/04/01 01:53:51;;;;;;;15.30;2.97;;;25.70;49.60;;;;;;5075132;28;20040;-65
2021/04/01 01:56:25;;;;;;;7.40;1.83;;;25.40;48.60;;;;;;5073642;28;20050;-65
2021/04/01 01:58:53;;;;;;;15.98;2.67;;;25.30;48.00;;;;;;5074494;28;20112;-65
2021/04/01 02:01:21;;;;;;;;;;;25.00;48.20;;;;;;5074646;28;20027;-66
2021/04/01 02:03:48;;;;;;;18.02;2.95;;;24.90;49.40;;;;;;5073284;28;19958;-65
2021/04/01 02:06:18;;;;;;;12.65;2.53;;;24.70;49.90;;;;;;5073220;28;20111;-65
2021/04/01 02:08:46;;;;;;;5.13;2.33;;;24.40;50.90;;;;;;5073348;28;20665;-65
2021/04/01 02:11:14;;;;;;;14.18;2.80;;;24.50;48.60;;;;;;5074186;28;20600;-66
2021/04/01 02:13:40;;;;;;;16.77;2.65;;;24.30;48.70;;;;;;5073642;28;20031;-63
2021/04/01 02:16:07;;;;;;;9.55;2.50;;;24.20;50.10;;;;;;5073888;28;20188;-64
2021/04/01 02:18:33;;;;;;;14.45;1.85;;;24.30;47.40;;;;;;5073651;28;20024;-64
2021/04/01 02:21:01;;;;;;;8.07;1.95;;;24.10;46.70;;;;;;5054164;28;20367;-64
2021/04/01 02:23:30;;;;;;;6.47;2.03;;;24.10;44.70;;;;;;5073443;28;20024;-64
2021/04/01 02:25:58;;;;;;;7.18;1.92;;;24.30;44.70;;;;;;5073179;28;20028;-64
2021/04/01 02:28:29;;;;;;;5.60;2.07;;;23.90;43.20;;;;;;5075163;28;20112;-65
2021/04/01 02:30:57;;;;;;;10.70;2.80;;;23.90;45.40;;;;;;5071686;28;20111;-65
2021/04/01 02:33:27;;;;;;;13.73;2.28;;;24.00;41.50;;;;;;5073830;28;20032;-64
2021/04/01 02:35:53;;;;;;;8.55;1.98;;;24.10;46.60;;;;;;5072877;28;20090;-63
2021/04/01 02:38:20;;;;;;;7.72;1.40;;;24.00;41.80;;;;;;5073710;28;20431;-63
2021/04/01 02:40:47;;;;;;;5.72;1.52;;;24.10;39.60;;;;;;5073738;28;20558;-63
2021/04/01 02:43:28;;;;;;;6.22;1.90;;;24.20;40.90;;;;;;5054781;28;20081;-63
2021/04/01 02:45:55;;;;;;;8.88;1.83;;;24.10;39.90;;;;;;5073795;28;20043;-64
2021/04/01 02:48:21;;;;;;;4.82;1.65;;;24.30;39.30;;;;;;5073681;28;20020;-64
2021/04/01 02:50:48;;;;;;;11.25;1.15;;;24.30;38.60;;;;;;5073274;28;20079;-64
2021/04/01 02:53:15;;;;;;;3.35;1.40;;;24.10;38.70;;;;;;5070915;28;20021;-65
2021/04/01 02:55:41;;;;;;;4.82;1.42;;;24.20;42.30;;;;;;5072314;28;20035;-65
2021/04/01 02:58:08;;;;;;;5.78;1.63;;;24.10;38.90;;;;;;5069817;28;20696;-62
2021/04/01 03:00:37;;;;;;;11.32;2.25;;;24.10;38.10;;;;;;5068360;28;20138;-63
2021/04/01 03:03:12;;;;;;;6.22;1.63;;;24.10;40.10;;;;;;5070941;28;20035;-66
2021/04/01 03:05:39;;;;;;;4.72;2.17;;;24.10;38.30;;;;;;5072731;28;20344;-63
2021/04/01 03:08:07;;;;;;;8.60;1.40;;;23.80;39.20;;;;;;5070122;28;20038;-63
2021/04/01 03:10:33;;;;;;;11.70;2.22;;;23.80;36.90;;;;;;5072322;28;20032;-63
2021/04/01 03:13:00;;;;;;;3.30;1.55;;;23.90;36.80;;;;;;5053786;28;20487;-63
2021/04/01 03:15:26;;;;;;;6.57;1.30;;;23.80;39.10;;;;;;5070532;28;20519;-63
2021/04/01 03:17:53;;;;;;;7.43;1.50;;;23.80;36.60;;;;;;5070462;28;20043;-63
2021/04/01 03:20:19;;;;;;;10.00;2.72;;;23.60;37.10;;;;;;5053578;28;20658;-64
2021/04/01 03:22:46;;;;;;;7.57;1.83;;;23.50;38.70;;;;;;5071693;28;20096;-63
2021/04/01 03:25:14;;;;;;;7.65;1.73;;;23.40;41.20;;;;;;5072362;28;20031;-64
2021/04/01 03:27:41;;;;;;;8.65;1.95;;;23.10;40.20;;;;;;5072416;28;20032;-64
2021/04/01 03:30:14;;;;;;;10.13;2.35;;;22.70;42.40;;;;;;5071357;28;20435;-64
2021/04/01 03:32:50;;;;;;;10.55;1.83;;;22.40;45.00;;;;;;5072409;28;20043;-64
2021/04/01 03:35:21;;;;;;;7.60;2.33;;;22.20;46.30;;;;;;5071606;28;20027;-64
2021/04/01 03:37:49;;;;;;;4.70;1.70;;;22.10;47.80;;;;;;5073508;28;20044;-64
2021/04/01 03:40:16;;;;;;;7.57;2.03;;;22.00;46.00;;;;;;5073111;28;20016;-63
2021/04/01 03:42:43;;;;;;;7.90;2.03;;;21.90;45.10;;;;;;5072261;28;20276;-65
2021/04/01 03:45:12;;;;;;;8.27;1.95;;;21.60;47.80;;;;;;5072468;28;20033;-64
2021/04/01 03:47:39;;;;;;;6.13;1.77;;;21.40;48.90;;;;;;5072975;28;20044;-63
2021/04/01 03:50:08;;;;;;;4.72;1.90;;;21.20;47.20;;;;;;5071780;28;20020;-64
2021/04/01 03:52:35;;;;;;;8.35;2.03;;;21.00;48.30;;;;;;5071408;28;20060;-64
2021/04/01 03:55:11;;;;;;;4.47;1.60;;;20.90;47.10;;;;;;5073028;28;20845;-63
2021/04/01 03:57:39;;;;;;;6.75;1.77;;;20.70;48.90;;;;;;5070656;28;20074;-63
2021/04/01 04:05:41;;;;;;;4.50;2.05;;;20.50;44.00;;;;;;5073346;28;21020;-64
2021/04/01 04:10:53;;;;;;;6.53;2.47;;;20.20;49.60;;;;;;5071459;28;20051;-64
2021/04/01 04:13:25;;;;;;;14.43;2.00;;;20.10;49.00;;;;;;5072989;28;20036;-65
2021/04/01 04:15:52;;;;;;;10.60;2.53;;;19.90;49.70;;;;;;5072053;28;20094;-64
2021/04/01 04:18:19;;;;;;;12.43;1.30;;;19.80;48.80;;;;;;5072239;28;20509;-64
2021/04/01 04:20:47;;;;;;;9.23;2.15;;;19.70;50.30;;;;;;5072502;28;20119;-63
2021/04/01 04:23:15;;;;;;;6.82;2.50;;;19.70;51.50;;;;;;5071674;28;20028;-65
2021/04/01 04:25:42;;;;;;;8.65;2.15;;;19.50;51.70;;;;;;5071028;28;20024;-65
2021/04/01 04:30:53;;;;;;;10.68;2.15;;;19.30;52.90;;;;;;5073249;28;20498;-65
2021/04/01 04:33:20;;;;;;;14.30;2.47;;;19.30;50.10;;;;;;5072415;28;20048;-64
2021/04/01 04:35:47;;;;;;;8.88;2.45;;;19.30;51.20;;;;;;5072656;28;20058;-66
2021/04/01 04:38:13;;;;;;;6.47;1.45;;;19.20;51.90;;;;;;5072242;28;20132;-65
2021/04/01 04:40:40;;;;;;;7.10;1.92;;;19.20;51.80;;;;;;5071083;28;20032;-62
2021/04/01 04:43:07;;;;;;;5.50;1.60;;;19.10;50.70;;;;;;5071844;28;20024;-63
2021/04/01 04:45:34;;;;;;;6.50;1.48;;;19.10;48.00;;;;;;5071955;28;20694;-62
2021/04/01 04:48:00;;;;;;;6.43;1.98;;;19.10;51.30;;;;;;5052599;28;20515;-61
2021/04/01 04:50:27;;;;;;;6.60;1.70;;;19.10;47.80;;;;;;5071261;28;20078;-64
2021/04/01 04:52:53;;;;;;;4.65;1.48;;;19.10;48.60;;;;;;5070058;28;20684;-64
2021/04/01 04:55:20;;;;;;;2.92;1.48;;;19.10;48.30;;;;;;5071091;28;20028;-63
2021/04/01 04:57:58;;;;;;;3.80;1.35;;;19.00;46.40;;;;;;5071464;28;20100;-62
2021/04/01 05:00:44;;;;;;;6.15;1.45;;;18.90;50.00;;;;;;5071008;28;20021;-62
2021/04/01 05:05:56;;;;;;;7.97;2.20;;;18.70;53.10;;;;;;5072568;28;20444;-62
2021/04/01 05:08:22;;;;;;;6.82;1.70;;;18.60;53.60;;;;;;5070218;28;20052;-62
2021/04/01 05:10:51;;;;;;;5.05;1.88;;;18.50;53.10;;;;;;5069812;28;20059;-64
2021/04/01 05:13:18;;;;;;;12.73;2.13;;;18.40;54.60;;;;;;5074449;28;20020;-62
2021/04/01 05:15:49;;;;;;;8.68;2.22;;;18.40;54.80;;;;;;5074208;28;20031;-64
2021/04/01 05:20:47;;;;;;;;;;;18.20;55.60;;;;;;5076096;28;20013;-61
2021/04/01 05:23:27;;;;;;;;;;;18.20;56.00;;;;;;5075280;28;19912;-61
2021/04/01 05:28:45;;;;;;;6.33;1.60;;;18.10;51.00;;;;;;5042170;28;20523;-61
2021/04/01 05:31:13;;;;;;;7.82;1.60;;;18.10;53.40;;;;;;5074298;28;20061;-61
2021/04/01 05:33:45;;;;;;;6.38;2.00;;;18.00;54.40;;;;;;5075357;28;20090;-61
2021/04/01 05:36:15;;;;;;;7.22;1.95;;;18.00;52.70;;;;;;5072960;28;20044;-61
2021/04/01 05:38:42;;;;;;;6.10;1.60;;;18.00;51.80;;;;;;5075317;28;20028;-61
2021/04/01 05:41:10;;;;;;;7.47;2.08;;;18.00;52.90;;;;;;5074310;28;20040;-61
2021/04/01 05:43:41;;;;;;;5.10;1.70;;;18.00;53.90;;;;;;5075688;28;20039;-61
2021/04/01 05:46:16;;;;;;;12.52;2.10;;;18.00;55.30;;;;;;5075284;28;20035;-61
2021/04/01 05:49:05;;;;;;;9.23;2.65;;;17.90;53.00;;;;;;5073643;28;20040;-61
2021/04/01 05:51:54;;;;;;;4.13;1.95;;;17.80;52.80;;;;;;5074187;28;21856;-62
2021/04/01 06:00:37;;;;;;;8.32;2.55;;;17.70;54.80;;;;;;5046067;28;20523;-62
2021/04/01 06:05:32;;;;;;;4.60;1.52;;;17.70;54.50;;;;;;5073511;28;20031;-62
2021/04/01 06:08:09;;;;;;;10.02;2.08;;;17.60;54.80;;;;;;5072696;28;20393;-60
2021/04/01 06:10:36;;;;;;;8.25;2.08;;;17.60;54.00;;;;;;5074049;28;20059;-61
2021/04/01 06:13:31;;;;;;;8.77;2.10;;;17.60;55.60;;;;;;5054450;28;20035;-60
2021/04/01 06:16:04;;;;;;;6.82;1.98;;;17.70;55.30;;;;;;5071955;28;20048;-60
2021/04/01 06:18:34;;;;;;;6.10;2.08;;;17.70;53.10;;;;;;5075138;28;20031;-60
2021/04/01 06:21:11;;;;;;;8.80;2.50;;;17.70;50.90;;;;;;5073226;28;20029;-61
2021/04/01 06:23:41;;;;;;;5.25;3.17;;;17.60;53.20;;;;;;5073639;28;20055;-60
2021/04/01 06:26:15;;;;;;;8.90;3.78;;;17.70;55.00;;;;;;5072553;28;20024;-61
2021/04/01 06:28:49;;;;;;;8.15;2.53;;;17.60;54.60;;;;;;5071790;28;20088;-61
2021/04/01 06:31:24;;;;;;;5.18;2.28;;;17.50;55.80;;;;;;5072572;28;20035;-61
2021/04/01 06:34:02;;;;;;;5.03;2.10;;;17.30;57.10;;;;;;5074076;28;20040;-60
2021/04/01 06:36:33;;;;;;;4.68;2.20;;;17.30;56.30;;;;;;5073677;28;20032;-60
2021/04/01 06:38:59;;;;;;;4.57;2.67;;;17.30;56.10;;;;;;5071937;28;20033;-61
2021/04/01 06:41:29;;;;;;;7.60;1.95;;;17.20;52.50;;;;;;5073436;28;20048;-60
2021/04/01 06:44:01;;;;;;;;;;;17.30;55.90;;;;;;5073533;28;20124;-61
2021/04/01 06:46:31;;;;;;;8.82;1.98;;;17.50;51.00;;;;;;5072698;28;20388;-61
2021/04/01 06:51:56;;;;;;;5.10;1.63;;;17.80;51.30;;;;;;5074514;28;20075;-61
2021/04/01 06:54:33;;;;;;;3.85;2.17;;;17.60;53.40;;;;;;5071921;28;20031;-60
2021/04/01 06:57:18;;;;;;;5.07;1.60;;;17.40;54.60;;;;;;5070693;28;20100;-60
2021/04/01 07:02:56;;;;;;;11.27;2.60;;;17.10;56.30;;;;;;5072746;28;20044;-60
2021/04/01 07:05:37;;;;;;;4.40;2.20;;;17.00;56.00;;;;;;5073604;28;20049;-60
2021/04/01 07:08:08;;;;;;;2.88;1.42;;;17.10;56.30;;;;;;5073183;28;20041;-60
2021/04/01 07:10:51;;;;;;;7.13;1.80;;;17.00;55.90;;;;;;5073667;28;20032;-62
2021/04/01 07:13:23;;;;;;;7.25;2.50;;;17.10;56.00;;;;;;5071985;28;20032;-60
2021/04/01 07:15:54;;;;;;;10.77;2.28;;;17.00;54.80;;;;;;5073783;28;20024;-63
2021/04/01 07:18:29;;;;;;;7.53;1.98;;;16.70;58.30;;;;;;5073213;28;20043;-61
2021/04/01 07:48:49;;;;;;;6.97;2.55;;;16.10;57.50;;;;;;5072412;28;20197;-61
2021/04/01 07:53:57;;;;;;;7.22;1.83;;;16.00;57.10;;;;;;5072037;28;20021;-60
2021/04/01 07:56:31;;;;;;;10.00;2.20;;;16.00;56.90;;;;;;5071855;28;20035;-61
2021/04/01 08:04:32;;;;;;;9.30;2.28;;;15.90;56.00;;;;;;4999904;28;20409;-61
2021/04/01 08:07:12;;;;;;;8.23;2.67;;;16.00;56.40;;;;;;5056756;28;20988;-61
2021/04/01 08:09:43;;;;;;;7.50;1.75;;;16.10;54.60;;;;;;5072087;28;20029;-61
2021/04/01 08:12:33;;;;;;;11.43;2.72;;;16.10;54.50;;;;;;5072144;28;20020;-61
2021/04/01 08:15:13;;;;;;;7.88;2.40;;;16.20;50.50;;;;;;5072404;28;20056;-61
2021/04/01 08:20:45;;;;;;;11.70;1.95;;;16.40;53.20;;;;;;5024685;28;20058;-62
2021/04/01 08:23:20;;;;;;;8.65;2.00;;;16.20;54.10;;;;;;5072845;28;20400;-62
2021/04/01 08:26:00;;;;;;;9.85;2.55;;;16.10;53.60;;;;;;5072410;28;20117;-62
2021/04/01 08:28:47;;;;;;;7.75;2.42;;;16.00;54.70;;;;;;5071151;28;20032;-62
2021/04/01 08:36:25;;;;;;;7.80;1.80;;;15.70;57.20;;;;;;5071163;28;20059;-60
2021/04/01 08:38:52;;;;;;;9.60;2.25;;;15.60;58.30;;;;;;5072159;28;20043;-61
2021/04/01 08:41:57;;;;;;;11.73;1.77;;;15.50;57.50;;;;;;5072241;28;20031;-60
2021/04/01 08:44:39;;;;;;;7.80;2.22;;;15.50;55.20;;;;;;5070191;28;20043;-60
2021/04/01 08:47:24;;;;;;;10.40;1.90;;;15.60;54.60;;;;;;5072003;28;20047;-61
2021/04/01 08:53:27;;;;;;;10.07;2.55;;;15.60;53.10;;;;;;5075475;28;20024;-61
2021/04/01 08:56:26;;;;;;;6.28;1.98;;;15.70;53.20;;;;;;5075676;28;20028;-61
2021/04/01 08:59:02;;;;;;;5.20;2.00;;;15.70;51.40;;;;;;5074372;28;20028;-61
2021/04/01 09:01:40;;;;;;;8.93;2.05;;;15.90;51.90;;;;;;5076526;28;20495;-61
2021/04/01 09:04:07;;;;;;;6.80;2.03;;;15.80;51.20;;;;;;5075146;28;20028;-60
2021/04/01 09:06:46;;;;;;;9.90;2.45;;;15.80;51.30;;;;;;5075008;28;20035;-60
2021/04/01 09:09:19;;;;;;;13.50;2.17;;;15.80;50.10;;;;;;5074399;28;20071;-60
2021/04/01 09:12:09;;;;;;;7.35;2.10;;;15.90;52.30;;;;;;5075256;28;20224;-60
2021/04/01 09:14:40;;;;;;;5.78;1.75;;;15.80;52.40;;;;;;5074493;28;20036;-60
2021/04/01 09:17:13;;;;;;;6.75;1.45;;;15.90;50.40;;;;;;5074008;28;20044;-59
2021/04/01 09:19:41;;;;;;;6.45;1.67;;;16.00;51.00;;;;;;5075960;28;20514;-60
2021/04/01 09:22:22;;;;;;;9.23;2.25;;;16.00;49.40;;;;;;5075304;28;20035;-61
2021/04/01 09:24:54;;;;;;;5.28;1.95;;;16.00;49.00;;;;;;5074214;28;20028;-61
2021/04/01 09:27:20;;;;;;;7.97;2.05;;;16.00;53.20;;;;;;5075057;28;20028;-60
2021/04/01 09:29:48;;;;;;;11.50;3.63;;;15.90;54.20;;;;;;5073734;28;20057;-60
2021/04/01 09:32:15;;;;;;;6.90;2.38;;;15.80;53.90;;;;;;5074561;28;20397;-60
2021/04/01 09:34:48;;;;;;;15.57;2.13;;;15.70;54.10;;;;;;5074618;28;20029;-60
2021/04/01 09:37:16;;;;;;;7.88;2.13;;;15.70;51.30;;;;;;5073772;28;20063;-60
2021/04/01 09:39:43;;;;;;;9.20;1.83;;;15.60;57.10;;;;;;5074743;28;20080;-61
2021/04/01 09:42:12;;;;;;;10.13;2.55;;;15.50;58.80;;;;;;5056901;28;20028;-61
2021/04/01 09:44:53;;;;;;;8.27;2.15;;;15.40;57.60;;;;;;5074146;28;20020;-58
2021/04/01 09:47:40;;;;;;;8.23;1.95;;;15.20;60.40;;;;;;5074254;28;20135;-60
2021/04/01 09:50:07;;;;;;;8.10;2.55;;;15.00;62.40;;;;;;5060027;28;20598;-60
2021/04/01 09:52:35;;;;;;;7.32;2.45;;;15.00;58.30;;;;;;5074720;28;20032;-61
2021/04/01 09:55:07;;;;;;;10.35;2.40;;;14.90;58.70;;;;;;5073105;28;20480;-59
2021/04/01 09:57:46;;;;;;;4.80;1.77;;;14.90;58.80;;;;;;5074661;28;20036;-60
2021/04/01 10:00:26;;;;;;;18.83;1.73;;;14.90;57.90;;;;;;5074552;28;20036;-60
2021/04/01 10:03:05;;;;;;;9.48;2.03;;;14.80;58.80;;;;;;5074794;28;20024;-60
2021/04/01 10:05:46;;;;;;;15.75;2.65;;;14.70;62.60;;;;;;5074282;28;20467;-60
2021/04/01 10:08:23;;;;;;;11.80;2.63;;;14.50;67.10;;;;;;5073415;28;20043;-60
2021/04/01 10:10:55;;;;;;;10.73;2.45;;;14.40;65.30;;;;;;5074210;28;20376;-61
2021/04/01 10:13:28;;;;;;;6.38;2.22;;;14.40;63.20;;;;;;5074154;28;20064;-60
2021/04/01 10:15:56;;;;;;;9.27;1.88;;;14.40;62.90;;;;;;5073729;28;20436;-60
2021/04/01 10:18:36;;;;;;;10.27;2.55;;;14.30;61.20;;;;;;5074212;28;20552;-62
2021/04/01 10:21:04;;;;;;;19.30;3.45;;;14.20;61.80;;;;;;5073833;28;20089;-60
2021/04/01 10:23:51;;;;;;;9.50;1.88;;;14.20;64.80;;;;;;5074596;28;20037;-61
2021/04/01 10:26:17;;;;;;;12.20;2.58;;;14.10;66.60;;;;;;5057140;28;20127;-62
2021/04/01 10:29:06;;;;;;;16.17;3.35;;;14.00;67.10;;;;;;5073386;28;20486;-61
2021/04/01 10:31:47;;;;;;;12.93;2.65;;;13.90;69.20;;;;;;5073382;28;20049;-61
2021/04/01 10:34:38;;;;;;;10.75;2.25;;;14.00;65.40;;;;;;5072762;28;20074;-61
2021/04/01 10:37:08;;;;;;;8.60;1.80;;;14.30;60.70;;;;;;5073370;28;20041;-61
2021/04/01 10:39:38;;;;;;;10.40;2.13;;;14.20;62.10;;;;;;5074968;28;20036;-62
2021/04/01 10:42:08;;;;;;;10.30;2.22;;;14.00;71.20;;;;;;5071715;28;20024;-62
2021/04/01 10:44:36;;;;;;;9.73;2.05;;;13.90;72.80;;;;;;5054797;28;20325;-60
2021/04/01 10:47:05;;;;;;;9.18;2.17;;;13.90;67.90;;;;;;5072608;28;20759;-61
2021/04/01 10:49:37;;;;;;;10.15;2.10;;;13.80;66.60;;;;;;5073960;28;20035;-60
2021/04/01 10:52:12;;;;;;;4.47;1.80;;;13.70;69.10;;;;;;5073626;28;20024;-60
2021/04/01 10:54:41;;;;;;;7.68;1.73;;;13.60;71.00;;;;;;5073357;28;20032;-60
2021/04/01 10:57:26;;;;;;;9.52;2.10;;;13.50;68.80;;;;;;5072683;28;20149;-61
2021/04/01 10:59:53;;;;;;;7.97;1.70;;;13.50;68.00;;;;;;5074619;28;20020;-61
2021/04/01 11:02:22;;;;;;;4.57;1.95;;;13.60;65.50;;;;;;5072406;28;20433;-60
2021/04/01 11:04:57;;;;;;;11.60;2.05;;;13.50;66.30;;;;;;5073520;28;20080;-61
2021/04/01 11:07:32;;;;;;;10.52;2.53;;;13.50;72.20;;;;;;5073458;28;20028;-60
2021/04/01 11:09:59;;;;;;;6.45;2.42;;;13.40;70.90;;;;;;5073233;28;20036;-60
2021/04/01 11:12:27;;;;;;;7.03;1.70;;;13.30;69.20;;;;;;5071992;28;20032;-60
2021/04/01 11:15:02;;;;;;;8.07;1.73;;;13.40;69.70;;;;;;5073605;28;20033;-60
2021/04/01 11:17:31;;;;;;;12.23;3.28;;;13.30;70.40;;;;;;5074915;28;20032;-62
2021/04/01 11:20:00;;;;;;;7.75;1.75;;;13.20;71.70;;;;;;5072035;28;20039;-61
2021/04/01 11:22:27;;;;;;;;;;;13.30;69.60;;;;;;5074259;28;20028;-61
2021/04/01 11:24:55;;;;;;;5.20;1.85;;;13.30;68.00;;;;;;5072014;28;19958;-60
2021/04/01 11:27:22;;;;;;;5.90;1.85;;;13.30;67.60;;;;;;5073016;28;20020;-60
2021/04/01 11:29:59;;;;;;;5.18;2.20;;;13.20;71.20;;;;;;5073371;28;20094;-60
2021/04/01 11:32:29;;;;;;;10.15;2.28;;;13.10;70.70;;;;;;5072469;28;20028;-60
2021/04/01 11:35:00;;;;;;;6.28;2.38;;;13.10;74.00;;;;;;5073972;28;20028;-60
2021/04/01 11:37:35;;;;;;;13.75;2.42;;;13.00;72.00;;;;;;5074063;28;20127;-61
2021/04/01 11:40:07;;;;;;;3.20;1.55;;;13.10;73.80;;;;;;5071259;28;20100;-61
2021/04/01 11:42:35;;;;;;;10.60;2.10;;;13.00;70.80;;;;;;5073285;28;20714;-59
2021/04/01 11:45:05;;;;;;;5.30;1.77;;;13.10;71.30;;;;;;5071957;28;20186;-59
2021/04/01 11:47:35;;;;;;;6.95;2.58;;;13.10;71.20;;;;;;5072600;28;20039;-60
2021/04/01 11:50:05;;;;;;;7.10;1.80;;;13.10;69.10;;;;;;5072357;28;20146;-59
2021/04/01 11:52:32;;;;;;;18.63;1.92;;;13.10;66.00;;;;;;5072712;28;20032;-60
2021/04/01 11:55:12;;;;;;;8.02;1.77;;;13.10;72.10;;;;;;5073325;28;20024;-60
2021/04/01 11:57:44;;;;;;;8.60;2.63;;;13.10;75.50;;;;;;5071284;28;20032;-60
2021/04/01 12:00:16;;;;;;;10.55;1.98;;;13.00;70.80;;;;;;5072515;28;20032;-60
2021/04/01 12:05:39;;;;;;;12.10;1.92;;;13.10;66.60;;;;;;5072978;28;20044;-60
2021/04/01 12:08:06;;;;;;;6.72;2.28;;;13.00;70.80;;;;;;5071803;28;20593;-60
2021/04/01 12:10:32;;;;;;;12.15;2.08;;;13.00;69.70;;;;;;5072776;28;20129;-61
2021/04/01 12:13:00;;;;;;;12.70;2.90;;;13.00;71.40;;;;;;5073488;28;20102;-60
2021/04/01 12:15:37;;;;;;;15.93;2.40;;;12.90;76.10;;;;;;5072055;28;20379;-60
2021/04/01 12:18:06;;;;;;;10.20;2.45;;;12.80;77.60;;;;;;5071660;28;20043;-60
2021/04/01 12:20:34;;;;;;;12.63;3.28;;;12.80;76.10;;;;;;5071635;28;20026;-61
2021/04/01 12:23:10;;;;;;;10.95;2.65;;;12.80;71.40;;;;;;5076104;28;20033;-61
2021/04/01 12:25:37;;;;;;;9.68;2.08;;;12.80;68.40;;;;;;5076462;28;20362;-61
2021/04/01 12:28:05;;;;;;;9.32;1.83;;;12.90;68.30;;;;;;5075621;28;21987;-61
2021/04/01 12:30:35;;;;;;;12.13;2.47;;;12.90;72.50;;;;;;5076003;28;20048;-60
2021/04/01 12:33:22;;;;;;;9.35;2.13;;;12.90;77.30;;;;;;5076668;28;20020;-62
2021/04/01 12:36:06;;;;;;;10.60;2.72;;;12.80;78.30;;;;;;5075408;28;20020;-61
2021/04/01 12:38:42;;;;;;;8.80;2.40;;;12.70;73.00;;;;;;5075868;28;20040;-61
2021/04/01 12:41:21;;;;;;;11.60;1.98;;;12.70;78.50;;;;;;5075291;28;20024;-61
2021/04/01 12:43:48;;;;;;;10.30;2.03;;;12.70;74.00;;;;;;5057819;28;20061;-62
2021/04/01 12:46:15;;;;;;;6.63;1.88;;;12.60;72.90;;;;;;5057362;28;20746;-62
2021/04/01 12:48:48;;;;;;;9.57;2.05;;;12.60;71.00;;;;;;5074456;28;20031;-61
2021/04/01 12:51:19;;;;;;;6.65;2.60;;;12.70;71.40;;;;;;5075450;28;20024;-61
2021/04/01 12:54:10;;;;;;;10.35;3.22;;;12.60;74.20;;;;;;5076592;28;20032;-61
2021/04/01 12:56:42;;;;;;;12.43;2.10;;;12.50;78.20;;;;;;5074432;28;20047;-61
2021/04/01 12:59:16;;;;;;;9.02;2.13;;;12.50;78.10;;;;;;5075244;28;20525;-61
2021/04/01 13:01:52;;;;;;;10.00;2.05;;;12.60;67.80;;;;;;5074874;28;20039;-61
2021/04/01 13:04:21;;;;;;;4.50;2.03;;;12.70;72.80;;;;;;5075199;28;20069;-61
2021/04/01 13:11:49;;;;;;;8.32;1.92;;;12.70;70.70;;;;;;5077142;28;20024;-61
2021/04/01 13:14:16;;;;;;;5.07;1.60;;;12.60;67.00;;;;;;5074877;28;20035;-61
2021/04/01 13:16:42;;;;;;;14.35;1.80;;;12.60;69.80;;;;;;5074500;28;20116;-60
2021/04/01 13:19:09;;;;;;;8.27;2.03;;;12.60;70.70;;;;;;5074274;28;20028;-61
2021/04/01 13:21:52;;;;;;;5.88;2.00;;;12.60;70.00;;;;;;5075325;28;20762;-61
2021/04/01 13:24:43;;;;;;;8.65;1.98;;;12.50;75.40;;;;;;5075682;28;20032;-61
2021/04/01 13:27:11;;;;;;;8.57;2.40;;;12.40;76.00;;;;;;5075917;28;20990;-62
2021/04/01 13:29:40;;;;;;;8.45;1.73;;;12.40;79.60;;;;;;5057120;28;20051;-61
2021/04/01 13:32:14;;;;;;;6.57;1.60;;;12.30;76.60;;;;;;5075373;28;20146;-61
2021/04/01 13:34:46;;;;;;;11.55;2.17;;;12.40;69.00;;;;;;5075030;28;20096;-62
2021/04/01 13:37:24;;;;;;;8.43;1.77;;;12.40;73.50;;;;;;5074180;28;20194;-62
2021/04/01 13:39:54;;;;;;;8.55;2.35;;;12.40;75.40;;;;;;5074222;28;20059;-62
2021/04/01 13:42:25;;;;;;;8.75;2.40;;;12.40;73.90;;;;;;5074402;28;20028;-63
2021/04/01 13:44:57;;;;;;;10.45;2.25;;;12.40;74.40;;;;;;5074035;28;20036;-61
2021/04/01 13:47:26;;;;;;;12.27;1.80;;;12.50;71.00;;;;;;5072553;28;20043;-61
2021/04/01 13:49:55;;;;;;;8.52;2.55;;;12.50;72.40;;;;;;5058069;28;20368;-62
2021/04/01 13:52:36;;;;;;;12.82;2.72;;;12.50;73.40;;;;;;5055265;28;20032;-62
2021/04/01 13:55:18;;;;;;;5.82;1.98;;;12.50;75.80;;;;;;5073580;28;20058;-62
2021/04/01 13:58:16;;;;;;;9.43;2.22;;;12.50;76.70;;;;;;5074574;28;20101;-61
2021/04/01 14:09:18;;;;;;;16.73;4.53;;;12.60;76.40;;;;;;5074239;28;20035;-61
2021/04/01 14:11:45;;;;;;;19.00;4.55;;;12.70;82.20;;;;;;5073984;28;20032;-61
2021/04/01 14:14:11;;;;;;;18.48;2.13;;;12.70;81.30;;;;;;5073995;28;20034;-61
2021/04/01 14:16:42;;;;;;;7.55;2.00;;;12.70;82.90;;;;;;5074502;28;20660;-61
2021/04/01 14:19:09;;;;;;;13.20;2.95;;;12.80;83.30;;;;;;5073813;28;20074;-61
2021/04/01 14:21:36;;;;;;;10.63;2.22;;;12.80;82.40;;;;;;5054479;28;20465;-62
2021/04/01 14:29:35;;;;;;;21.02;3.40;;;13.10;88.20;;;;;;5070538;28;20040;-61
2021/04/01 14:32:03;;;;;;;12.65;3.90;;;13.20;86.40;;;;;;5073353;28;20036;-61
2021/04/01 14:34:31;;;;;;;8.65;3.22;;;13.40;86.40;;;;;;5074211;28;20095;-61
2021/04/01 14:37:00;;;;;;;5.57;1.67;;;13.50;86.00;;;;;;5072551;28;20078;-63
2021/04/01 14:39:30;;;;;;;12.75;2.58;;;13.70;84.10;;;;;;5074356;28;20089;-62
2021/04/01 14:42:06;;;;;;;7.30;2.03;;;13.90;80.00;;;;;;5073964;28;20134;-62
2021/04/01 14:44:34;;;;;;;5.20;1.58;;;14.30;79.80;;;;;;5072820;28;20026;-62
2021/04/01 14:47:01;;;;;;;16.87;2.93;;;14.60;80.10;;;;;;5071349;28;20069;-63
2021/04/01 14:49:27;;;;;;;3.33;1.70;;;14.90;77.40;;;;;;5072460;28;20359;-62